sensor_id;sensor_type;location;lat;lon;timestamp;P1;durP1;ratioP1;P2;durP2;ratioP2
60016;SDS011;45869;52.698;6.210;2023-05-19T00:01:07;10.02;;;4.28;;
60016;SDS011;45869;52.698;6.210;2023-05-19T00:03:33;11.20;;;4.22;;
60016;SDS011;45869;52.698;6.210;2023-05-19T00:06:01;13.75;;;4.70;;
60016;SDS011;45869;52.698;6.210;2023-05-19T00:08:30;11.27;;;4.78;;
60016;SDS011;45869;52.698;6.210;2023-05-19T00:10:59;9.35;;;4.40;;
60016;SDS011;45869;52.698;6.210;2023-05-19T00:13:26;13.43;;;5.05;;
60016;SDS011;45869;52.698;6.210;2023-05-19T00:15:52;13.55;;;4.80;;
60016;SDS011;45869;52.698;6.210;2023-05-19T00:18:18;15.48;;;5.40;;
60016;SDS011;45869;52.698;6.210;2023-05-19T00:20:45;11.35;;;5.00;;
60016;SDS011;45869;52.698;6.210;2023-05-19T00:23:14;9.88;;;4.93;;
60016;SDS011;45869;52.698;6.210;2023-05-19T00:25:42;11.95;;;5.18;;
60016;SDS011;45869;52.698;6.210;2023-05-19T00:28:08;10.38;;;4.82;;
60016;SDS011;45869;52.698;6.210;2023-05-19T00:30:35;8.60;;;4.57;;
60016;SDS011;45869;52.698;6.210;2023-05-19T00:33:01;8.40;;;4.13;;
60016;SDS011;45869;52.698;6.210;2023-05-19T00:35:27;11.23;;;5.20;;
60016;SDS011;45869;52.698;6.210;2023-05-19T00:37:53;12.10;;;5.10;;
60016;SDS011;45869;52.698;6.210;2023-05-19T00:40:19;12.98;;;4.88;;
60016;SDS011;45869;52.698;6.210;2023-05-19T00:42:45;10.75;;;5.20;;
60016;SDS011;45869;52.698;6.210;2023-05-19T00:45:11;10.60;;;4.30;;
60016;SDS011;45869;52.698;6.210;2023-05-19T00:47:38;8.73;;;4.65;;
60016;SDS011;45869;52.698;6.210;2023-05-19T00:50:04;11.50;;;5.20;;
60016;SDS011;45869;52.698;6.210;2023-05-19T00:52:30;10.85;;;4.95;;
60016;SDS011;45869;52.698;6.210;2023-05-19T00:54:56;13.77;;;5.50;;
60016;SDS011;45869;52.698;6.210;2023-05-19T00:57:22;11.80;;;5.45;;
60016;SDS011;45869;52.698;6.210;2023-05-19T00:59:50;14.35;;;5.90;;
60016;SDS011;45869;52.698;6.210;2023-05-19T01:02:16;15.20;;;5.95;;
60016;SDS011;45869;52.698;6.210;2023-05-19T01:04:42;13.20;;;5.00;;
60016;SDS011;45869;52.698;6.210;2023-05-19T01:07:10;12.40;;;5.40;;
60016;SDS011;45869;52.698;6.210;2023-05-19T01:09:37;10.70;;;5.10;;
60016;SDS011;45869;52.698;6.210;2023-05-19T01:12:03;14.45;;;5.78;;
60016;SDS011;45869;52.698;6.210;2023-05-19T01:14:29;13.50;;;5.30;;
60016;SDS011;45869;52.698;6.210;2023-05-19T01:16:57;11.48;;;5.65;;
60016;SDS011;45869;52.698;6.210;2023-05-19T01:19:47;12.25;;;5.90;;
60016;SDS011;45869;52.698;6.210;2023-05-19T01:30:25;17.55;;;6.00;;
60016;SDS011;45869;52.698;6.210;2023-05-19T01:32:52;11.73;;;4.88;;
60016;SDS011;45869;52.698;6.210;2023-05-19T01:35:20;14.38;;;5.75;;
60016;SDS011;45869;52.698;6.210;2023-05-19T01:37:48;12.32;;;5.60;;
60016;SDS011;45869;52.698;6.210;2023-05-19T01:40:15;10.55;;;5.57;;
60016;SDS011;45869;52.698;6.210;2023-05-19T01:42:42;11.82;;;5.15;;
60016;SDS011;45869;52.698;6.210;2023-05-19T01:45:09;12.75;;;5.22;;
60016;SDS011;45869;52.698;6.210;2023-05-19T01:47:37;12.45;;;5.55;;
60016;SDS011;45869;52.698;6.210;2023-05-19T01:50:04;13.23;;;5.43;;
60016;SDS011;45869;52.698;6.210;2023-05-19T01:52:31;11.52;;;4.97;;
60016;SDS011;45869;52.698;6.210;2023-05-19T01:54:59;13.02;;;6.10;;
60016;SDS011;45869;52.698;6.210;2023-05-19T01:57:32;10.63;;;5.50;;
60016;SDS011;45869;52.698;6.210;2023-05-19T02:05:19;11.30;;;5.70;;
60016;SDS011;45869;52.698;6.210;2023-05-19T02:08:16;10.05;;;5.57;;
60016;SDS011;45869;52.698;6.210;2023-05-19T02:10:40;11.55;;;5.88;;
60016;SDS011;45869;52.698;6.210;2023-05-19T02:13:07;8.75;;;4.88;;
60016;SDS011;45869;52.698;6.210;2023-05-19T02:15:37;13.68;;;5.95;;
60016;SDS011;45869;52.698;6.210;2023-05-19T02:18:04;10.55;;;4.82;;
60016;SDS011;45869;52.698;6.210;2023-05-19T02:20:30;13.23;;;6.03;;
60016;SDS011;45869;52.698;6.210;2023-05-19T02:22:56;11.32;;;5.70;;
60016;SDS011;45869;52.698;6.210;2023-05-19T02:25:25;14.10;;;5.70;;
60016;SDS011;45869;52.698;6.210;2023-05-19T02:27:51;13.95;;;6.35;;
60016;SDS011;45869;52.698;6.210;2023-05-19T02:30:17;15.75;;;5.85;;
60016;SDS011;45869;52.698;6.210;2023-05-19T02:32:43;13.73;;;6.18;;
60016;SDS011;45869;52.698;6.210;2023-05-19T02:35:11;10.00;;;5.55;;
60016;SDS011;45869;52.698;6.210;2023-05-19T02:37:38;14.98;;;6.32;;
60016;SDS011;45869;52.698;6.210;2023-05-19T02:40:04;10.60;;;5.72;;
60016;SDS011;45869;52.698;6.210;2023-05-19T02:42:30;13.43;;;5.68;;
60016;SDS011;45869;52.698;6.210;2023-05-19T02:44:56;11.45;;;5.85;;
60016;SDS011;45869;52.698;6.210;2023-05-19T02:47:22;12.20;;;6.70;;
60016;SDS011;45869;52.698;6.210;2023-05-19T02:49:48;11.75;;;6.15;;
60016;SDS011;45869;52.698;6.210;2023-05-19T02:52:14;12.68;;;5.80;;
60016;SDS011;45869;52.698;6.210;2023-05-19T02:54:40;12.68;;;6.40;;
60016;SDS011;45869;52.698;6.210;2023-05-19T02:57:07;10.60;;;5.50;;
60016;SDS011;45869;52.698;6.210;2023-05-19T02:59:35;14.00;;;6.50;;
60016;SDS011;45869;52.698;6.210;2023-05-19T03:02:05;10.50;;;5.78;;
60016;SDS011;45869;52.698;6.210;2023-05-19T03:04:31;15.35;;;6.32;;
60016;SDS011;45869;52.698;6.210;2023-05-19T03:06:57;11.60;;;5.80;;
60016;SDS011;45869;52.698;6.210;2023-05-19T03:09:23;12.93;;;5.57;;
60016;SDS011;45869;52.698;6.210;2023-05-19T03:11:51;13.55;;;6.10;;
60016;SDS011;45869;52.698;6.210;2023-05-19T03:14:17;12.43;;;5.93;;
60016;SDS011;45869;52.698;6.210;2023-05-19T03:16:47;11.20;;;5.75;;
60016;SDS011;45869;52.698;6.210;2023-05-19T03:19:13;13.40;;;5.88;;
60016;SDS011;45869;52.698;6.210;2023-05-19T03:21:40;9.05;;;5.22;;
60016;SDS011;45869;52.698;6.210;2023-05-19T03:24:06;14.35;;;5.85;;
60016;SDS011;45869;52.698;6.210;2023-05-19T03:26:35;12.77;;;5.20;;
60016;SDS011;45869;52.698;6.210;2023-05-19T03:29:01;10.23;;;5.80;;
60016;SDS011;45869;52.698;6.210;2023-05-19T03:31:27;12.70;;;5.53;;
60016;SDS011;45869;52.698;6.210;2023-05-19T03:33:54;11.50;;;5.13;;
60016;SDS011;45869;52.698;6.210;2023-05-19T03:36:22;12.88;;;6.75;;
60016;SDS011;45869;52.698;6.210;2023-05-19T03:38:48;14.15;;;7.35;;
60016;SDS011;45869;52.698;6.210;2023-05-19T03:41:14;12.93;;;5.88;;
60016;SDS011;45869;52.698;6.210;2023-05-19T03:43:40;10.93;;;5.65;;
60016;SDS011;45869;52.698;6.210;2023-05-19T03:46:06;14.88;;;6.07;;
60016;SDS011;45869;52.698;6.210;2023-05-19T03:48:32;10.27;;;5.53;;
60016;SDS011;45869;52.698;6.210;2023-05-19T03:50:58;9.63;;;5.32;;
60016;SDS011;45869;52.698;6.210;2023-05-19T03:53:24;13.30;;;5.90;;
60016;SDS011;45869;52.698;6.210;2023-05-19T03:55:54;11.52;;;5.88;;
60016;SDS011;45869;52.698;6.210;2023-05-19T03:58:23;12.43;;;6.28;;
60016;SDS011;45869;52.698;6.210;2023-05-19T04:00:54;12.82;;;5.65;;
60016;SDS011;45869;52.698;6.210;2023-05-19T04:03:20;14.55;;;6.68;;
60016;SDS011;45869;52.698;6.210;2023-05-19T04:05:46;15.20;;;6.75;;
60016;SDS011;45869;52.698;6.210;2023-05-19T04:08:12;13.98;;;6.38;;
60016;SDS011;45869;52.698;6.210;2023-05-19T04:10:38;17.92;;;6.70;;
60016;SDS011;45869;52.698;6.210;2023-05-19T04:13:04;17.48;;;6.65;;
60016;SDS011;45869;52.698;6.210;2023-05-19T04:15:30;13.70;;;6.45;;
60016;SDS011;45869;52.698;6.210;2023-05-19T04:17:56;11.25;;;6.25;;
60016;SDS011;45869;52.698;6.210;2023-05-19T04:20:22;15.98;;;6.90;;
60016;SDS011;45869;52.698;6.210;2023-05-19T04:22:48;12.27;;;5.88;;
60016;SDS011;45869;52.698;6.210;2023-05-19T04:25:14;14.65;;;6.88;;
60016;SDS011;45869;52.698;6.210;2023-05-19T04:27:40;15.27;;;6.97;;
60016;SDS011;45869;52.698;6.210;2023-05-19T04:30:06;13.13;;;6.20;;
60016;SDS011;45869;52.698;6.210;2023-05-19T04:32:32;15.70;;;7.07;;
60016;SDS011;45869;52.698;6.210;2023-05-19T04:35:01;16.58;;;6.70;;
60016;SDS011;45869;52.698;6.210;2023-05-19T04:37:27;13.32;;;6.30;;
60016;SDS011;45869;52.698;6.210;2023-05-19T04:39:53;11.82;;;6.15;;
60016;SDS011;45869;52.698;6.210;2023-05-19T04:42:19;11.57;;;6.55;;
60016;SDS011;45869;52.698;6.210;2023-05-19T04:44:46;9.68;;;5.63;;
60016;SDS011;45869;52.698;6.210;2023-05-19T04:47:15;10.98;;;5.75;;
60016;SDS011;45869;52.698;6.210;2023-05-19T04:49:45;10.95;;;5.70;;
60016;SDS011;45869;52.698;6.210;2023-05-19T04:52:11;9.27;;;5.60;;
60016;SDS011;45869;52.698;6.210;2023-05-19T04:54:37;9.57;;;4.88;;
60016;SDS011;45869;52.698;6.210;2023-05-19T04:57:04;11.27;;;5.47;;
60016;SDS011;45869;52.698;6.210;2023-05-19T04:59:30;9.70;;;5.07;;
60016;SDS011;45869;52.698;6.210;2023-05-19T05:01:56;9.23;;;4.70;;
60016;SDS011;45869;52.698;6.210;2023-05-19T05:04:22;12.80;;;5.28;;
60016;SDS011;45869;52.698;6.210;2023-05-19T05:06:51;11.77;;;5.00;;
60016;SDS011;45869;52.698;6.210;2023-05-19T05:09:17;9.35;;;5.00;;
60016;SDS011;45869;52.698;6.210;2023-05-19T05:11:44;11.23;;;4.72;;
60016;SDS011;45869;52.698;6.210;2023-05-19T05:14:10;8.95;;;4.63;;
60016;SDS011;45869;52.698;6.210;2023-05-19T05:16:36;10.02;;;5.15;;
60016;SDS011;45869;52.698;6.210;2023-05-19T05:19:02;9.25;;;4.90;;
60016;SDS011;45869;52.698;6.210;2023-05-19T05:21:28;10.27;;;4.82;;
60016;SDS011;45869;52.698;6.210;2023-05-19T05:23:55;10.02;;;4.80;;
60016;SDS011;45869;52.698;6.210;2023-05-19T05:26:21;9.10;;;4.63;;
60016;SDS011;45869;52.698;6.210;2023-05-19T05:28:48;8.13;;;4.55;;
60016;SDS011;45869;52.698;6.210;2023-05-19T05:31:14;13.07;;;5.00;;
60016;SDS011;45869;52.698;6.210;2023-05-19T05:33:41;10.32;;;5.15;;
60016;SDS011;45869;52.698;6.210;2023-05-19T05:36:07;12.23;;;5.43;;
60016;SDS011;45869;52.698;6.210;2023-05-19T05:38:33;12.50;;;5.60;;
60016;SDS011;45869;52.698;6.210;2023-05-19T05:41:00;10.88;;;5.07;;
60016;SDS011;45869;52.698;6.210;2023-05-19T05:43:27;9.10;;;5.18;;
60016;SDS011;45869;52.698;6.210;2023-05-19T05:45:53;11.52;;;5.47;;
60016;SDS011;45869;52.698;6.210;2023-05-19T05:48:19;13.73;;;6.15;;
60016;SDS011;45869;52.698;6.210;2023-05-19T05:50:48;9.50;;;5.22;;
60016;SDS011;45869;52.698;6.210;2023-05-19T05:53:16;10.90;;;5.50;;
60016;SDS011;45869;52.698;6.210;2023-05-19T05:55:43;11.75;;;5.80;;
60016;SDS011;45869;52.698;6.210;2023-05-19T05:58:10;9.75;;;5.90;;
60016;SDS011;45869;52.698;6.210;2023-05-19T06:00:36;13.27;;;5.70;;
60016;SDS011;45869;52.698;6.210;2023-05-19T06:03:02;13.15;;;6.05;;
60016;SDS011;45869;52.698;6.210;2023-05-19T06:05:29;11.02;;;5.78;;
60016;SDS011;45869;52.698;6.210;2023-05-19T06:07:55;12.32;;;5.93;;
60016;SDS011;45869;52.698;6.210;2023-05-19T06:10:22;10.18;;;5.60;;
60016;SDS011;45869;52.698;6.210;2023-05-19T06:12:48;12.30;;;6.30;;
60016;SDS011;45869;52.698;6.210;2023-05-19T06:15:14;10.15;;;5.57;;
60016;SDS011;45869;52.698;6.210;2023-05-19T06:17:40;11.15;;;6.00;;
60016;SDS011;45869;52.698;6.210;2023-05-19T06:20:06;11.30;;;5.50;;
60016;SDS011;45869;52.698;6.210;2023-05-19T06:22:34;12.68;;;5.45;;
60016;SDS011;45869;52.698;6.210;2023-05-19T06:25:00;9.95;;;5.20;;
60016;SDS011;45869;52.698;6.210;2023-05-19T06:27:26;7.40;;;4.93;;
60016;SDS011;45869;52.698;6.210;2023-05-19T06:29:52;11.95;;;5.35;;
60016;SDS011;45869;52.698;6.210;2023-05-19T06:32:18;9.40;;;4.90;;
60016;SDS011;45869;52.698;6.210;2023-05-19T06:34:44;12.85;;;4.93;;
60016;SDS011;45869;52.698;6.210;2023-05-19T06:37:20;8.15;;;4.70;;
60016;SDS011;45869;52.698;6.210;2023-05-19T06:39:47;8.18;;;4.10;;
60016;SDS011;45869;52.698;6.210;2023-05-19T06:42:16;9.02;;;4.30;;
60016;SDS011;45869;52.698;6.210;2023-05-19T06:44:46;7.95;;;4.40;;
60016;SDS011;45869;52.698;6.210;2023-05-19T06:47:12;11.80;;;4.57;;
60016;SDS011;45869;52.698;6.210;2023-05-19T06:49:38;6.32;;;3.95;;
60016;SDS011;45869;52.698;6.210;2023-05-19T06:52:04;9.30;;;4.05;;
60016;SDS011;45869;52.698;6.210;2023-05-19T06:54:30;9.13;;;4.18;;
60016;SDS011;45869;52.698;6.210;2023-05-19T06:56:56;9.15;;;3.90;;
60016;SDS011;45869;52.698;6.210;2023-05-19T06:59:22;9.23;;;4.22;;
60016;SDS011;45869;52.698;6.210;2023-05-19T07:01:48;8.60;;;3.67;;
60016;SDS011;45869;52.698;6.210;2023-05-19T07:04:16;9.95;;;3.65;;
60016;SDS011;45869;52.698;6.210;2023-05-19T07:06:42;7.53;;;3.50;;
60016;SDS011;45869;52.698;6.210;2023-05-19T07:09:08;6.25;;;3.33;;
60016;SDS011;45869;52.698;6.210;2023-05-19T07:11:34;9.30;;;3.70;;
60016;SDS011;45869;52.698;6.210;2023-05-19T07:14:00;8.30;;;3.47;;
60016;SDS011;45869;52.698;6.210;2023-05-19T07:16:26;7.57;;;3.65;;
60016;SDS011;45869;52.698;6.210;2023-05-19T07:18:52;8.73;;;3.65;;
60016;SDS011;45869;52.698;6.210;2023-05-19T07:21:18;7.32;;;3.40;;
60016;SDS011;45869;52.698;6.210;2023-05-19T07:23:44;7.53;;;3.20;;
60016;SDS011;45869;52.698;6.210;2023-05-19T07:26:10;8.98;;;3.42;;
60016;SDS011;45869;52.698;6.210;2023-05-19T07:28:36;7.15;;;2.70;;
60016;SDS011;45869;52.698;6.210;2023-05-19T07:31:02;6.22;;;2.75;;
60016;SDS011;45869;52.698;6.210;2023-05-19T07:33:28;10.43;;;3.10;;
60016;SDS011;45869;52.698;6.210;2023-05-19T07:35:54;8.32;;;2.85;;
60016;SDS011;45869;52.698;6.210;2023-05-19T07:38:21;10.30;;;2.53;;
60016;SDS011;45869;52.698;6.210;2023-05-19T07:40:50;6.60;;;2.40;;
60016;SDS011;45869;52.698;6.210;2023-05-19T07:43:18;9.07;;;2.60;;
60016;SDS011;45869;52.698;6.210;2023-05-19T07:45:44;8.50;;;2.50;;
60016;SDS011;45869;52.698;6.210;2023-05-19T07:48:10;6.13;;;2.53;;
60016;SDS011;45869;52.698;6.210;2023-05-19T07:50:36;8.77;;;2.42;;
60016;SDS011;45869;52.698;6.210;2023-05-19T07:53:02;7.78;;;2.85;;
60016;SDS011;45869;52.698;6.210;2023-05-19T07:55:28;6.70;;;2.40;;
60016;SDS011;45869;52.698;6.210;2023-05-19T07:57:54;6.35;;;2.70;;
60016;SDS011;45869;52.698;6.210;2023-05-19T08:00:21;7.18;;;2.25;;
60016;SDS011;45869;52.698;6.210;2023-05-19T08:02:47;7.18;;;2.42;;
60016;SDS011;45869;52.698;6.210;2023-05-19T08:05:16;8.18;;;2.17;;
60016;SDS011;45869;52.698;6.210;2023-05-19T08:07:42;5.53;;;1.88;;
60016;SDS011;45869;52.698;6.210;2023-05-19T08:10:08;7.97;;;2.10;;
60016;SDS011;45869;52.698;6.210;2023-05-19T08:12:34;6.57;;;2.03;;
60016;SDS011;45869;52.698;6.210;2023-05-19T08:15:00;7.30;;;2.20;;
60016;SDS011;45869;52.698;6.210;2023-05-19T08:17:26;7.47;;;2.17;;
60016;SDS011;45869;52.698;6.210;2023-05-19T08:19:52;5.65;;;1.80;;
60016;SDS011;45869;52.698;6.210;2023-05-19T08:22:18;7.10;;;1.90;;
60016;SDS011;45869;52.698;6.210;2023-05-19T08:24:44;8.77;;;2.22;;
60016;SDS011;45869;52.698;6.210;2023-05-19T08:27:10;5.07;;;1.88;;
60016;SDS011;45869;52.698;6.210;2023-05-19T08:29:36;4.20;;;1.52;;
60016;SDS011;45869;52.698;6.210;2023-05-19T08:32:02;6.68;;;2.10;;
60016;SDS011;45869;52.698;6.210;2023-05-19T08:34:29;7.32;;;2.10;;
60016;SDS011;45869;52.698;6.210;2023-05-19T08:36:56;6.30;;;2.08;;
60016;SDS011;45869;52.698;6.210;2023-05-19T08:39:22;7.03;;;2.10;;
60016;SDS011;45869;52.698;6.210;2023-05-19T08:41:52;5.40;;;1.80;;
60016;SDS011;45869;52.698;6.210;2023-05-19T08:44:18;8.13;;;1.90;;
60016;SDS011;45869;52.698;6.210;2023-05-19T08:46:45;4.38;;;1.50;;
60016;SDS011;45869;52.698;6.210;2023-05-19T08:49:12;7.75;;;2.15;;
60016;SDS011;45869;52.698;6.210;2023-05-19T08:54:13;6.18;;;2.05;;
60016;SDS011;45869;52.698;6.210;2023-05-19T08:56:39;7.20;;;2.00;;
60016;SDS011;45869;52.698;6.210;2023-05-19T08:59:11;4.80;;;1.65;;
60016;SDS011;45869;52.698;6.210;2023-05-19T09:01:43;7.68;;;1.70;;
60016;SDS011;45869;52.698;6.210;2023-05-19T09:04:10;8.20;;;1.85;;
60016;SDS011;45869;52.698;6.210;2023-05-19T09:06:36;8.02;;;1.58;;
60016;SDS011;45869;52.698;6.210;2023-05-19T09:09:05;4.88;;;1.70;;
60016;SDS011;45869;52.698;6.210;2023-05-19T09:11:32;5.57;;;1.58;;
60016;SDS011;45869;52.698;6.210;2023-05-19T09:13:58;6.90;;;1.80;;
60016;SDS011;45869;52.698;6.210;2023-05-19T09:16:24;8.48;;;1.60;;
60016;SDS011;45869;52.698;6.210;2023-05-19T09:18:56;7.38;;;1.92;;
60016;SDS011;45869;52.698;6.210;2023-05-19T09:21:29;6.32;;;2.28;;
60016;SDS011;45869;52.698;6.210;2023-05-19T09:24:04;6.90;;;1.60;;
60016;SDS011;45869;52.698;6.210;2023-05-19T09:26:35;5.70;;;1.60;;
60016;SDS011;45869;52.698;6.210;2023-05-19T09:29:06;6.20;;;1.73;;
60016;SDS011;45869;52.698;6.210;2023-05-19T09:31:35;6.13;;;1.95;;
60016;SDS011;45869;52.698;6.210;2023-05-19T09:34:01;7.57;;;1.90;;
60016;SDS011;45869;52.698;6.210;2023-05-19T09:36:28;9.60;;;2.20;;
60016;SDS011;45869;52.698;6.210;2023-05-19T09:38:55;6.82;;;1.92;;
60016;SDS011;45869;52.698;6.210;2023-05-19T09:41:21;5.90;;;1.98;;
60016;SDS011;45869;52.698;6.210;2023-05-19T09:43:53;7.80;;;2.00;;
60016;SDS011;45869;52.698;6.210;2023-05-19T09:46:23;10.37;;;2.13;;
60016;SDS011;45869;52.698;6.210;2023-05-19T09:48:56;5.63;;;1.88;;
60016;SDS011;45869;52.698;6.210;2023-05-19T09:51:22;7.43;;;2.13;;
60016;SDS011;45869;52.698;6.210;2023-05-19T09:53:49;5.05;;;1.80;;
60016;SDS011;45869;52.698;6.210;2023-05-19T09:56:15;4.93;;;1.55;;
60016;SDS011;45869;52.698;6.210;2023-05-19T09:58:41;6.90;;;1.90;;
60016;SDS011;45869;52.698;6.210;2023-05-19T10:01:07;5.07;;;1.80;;
60016;SDS011;45869;52.698;6.210;2023-05-19T10:03:33;7.13;;;2.08;;
60016;SDS011;45869;52.698;6.210;2023-05-19T10:06:00;8.85;;;2.05;;
60016;SDS011;45869;52.698;6.210;2023-05-19T10:08:27;9.40;;;2.15;;
60016;SDS011;45869;52.698;6.210;2023-05-19T10:10:59;5.53;;;2.20;;
60016;SDS011;45869;52.698;6.210;2023-05-19T10:13:26;5.60;;;1.83;;
60016;SDS011;45869;52.698;6.210;2023-05-19T10:15:53;7.43;;;1.90;;
60016;SDS011;45869;52.698;6.210;2023-05-19T10:18:20;5.72;;;1.85;;
60016;SDS011;45869;52.698;6.210;2023-05-19T10:20:47;6.10;;;1.83;;
60016;SDS011;45869;52.698;6.210;2023-05-19T10:23:15;6.30;;;1.70;;
60016;SDS011;45869;52.698;6.210;2023-05-19T10:25:41;5.65;;;2.00;;
60016;SDS011;45869;52.698;6.210;2023-05-19T10:28:11;7.32;;;1.83;;
60016;SDS011;45869;52.698;6.210;2023-05-19T10:30:40;9.13;;;1.65;;
60016;SDS011;45869;52.698;6.210;2023-05-19T10:33:07;7.28;;;1.65;;
60016;SDS011;45869;52.698;6.210;2023-05-19T10:38:29;5.22;;;1.70;;
60016;SDS011;45869;52.698;6.210;2023-05-19T10:46:28;6.43;;;1.65;;
60016;SDS011;45869;52.698;6.210;2023-05-19T10:48:54;6.55;;;1.80;;
60016;SDS011;45869;52.698;6.210;2023-05-19T10:51:20;6.32;;;1.65;;
60016;SDS011;45869;52.698;6.210;2023-05-19T10:53:52;5.63;;;1.50;;
60016;SDS011;45869;52.698;6.210;2023-05-19T10:56:29;5.95;;;1.70;;
60016;SDS011;45869;52.698;6.210;2023-05-19T10:58:56;5.40;;;1.48;;
60016;SDS011;45869;52.698;6.210;2023-05-19T11:01:22;6.57;;;1.75;;
60016;SDS011;45869;52.698;6.210;2023-05-19T11:03:54;5.38;;;1.58;;
60016;SDS011;45869;52.698;6.210;2023-05-19T11:06:33;5.60;;;1.67;;
60016;SDS011;45869;52.698;6.210;2023-05-19T11:09:13;8.65;;;1.70;;
60016;SDS011;45869;52.698;6.210;2023-05-19T11:14:12;5.15;;;1.63;;
60016;SDS011;45869;52.698;6.210;2023-05-19T11:16:39;5.25;;;1.58;;
60016;SDS011;45869;52.698;6.210;2023-05-19T11:19:16;5.90;;;1.67;;
60016;SDS011;45869;52.698;6.210;2023-05-19T11:21:50;7.82;;;1.52;;
60016;SDS011;45869;52.698;6.210;2023-05-19T11:29:57;6.38;;;1.80;;
60016;SDS011;45869;52.698;6.210;2023-05-19T11:32:25;6.75;;;1.73;;
60016;SDS011;45869;52.698;6.210;2023-05-19T11:34:51;5.25;;;1.50;;
60016;SDS011;45869;52.698;6.210;2023-05-19T11:37:17;6.88;;;1.75;;
60016;SDS011;45869;52.698;6.210;2023-05-19T11:39:46;6.03;;;1.45;;
60016;SDS011;45869;52.698;6.210;2023-05-19T11:42:15;4.97;;;1.58;;
60016;SDS011;45869;52.698;6.210;2023-05-19T11:44:42;5.18;;;1.75;;
60016;SDS011;45869;52.698;6.210;2023-05-19T11:47:10;5.22;;;1.50;;
60016;SDS011;45869;52.698;6.210;2023-05-19T11:49:36;5.53;;;1.38;;
60016;SDS011;45869;52.698;6.210;2023-05-19T11:52:02;6.22;;;1.30;;
60016;SDS011;45869;52.698;6.210;2023-05-19T11:54:32;4.68;;;1.40;;
60016;SDS011;45869;52.698;6.210;2023-05-19T11:57:03;8.18;;;1.83;;
60016;SDS011;45869;52.698;6.210;2023-05-19T11:59:30;6.65;;;1.70;;
60016;SDS011;45869;52.698;6.210;2023-05-19T12:01:56;5.90;;;1.50;;
60016;SDS011;45869;52.698;6.210;2023-05-19T12:04:22;6.25;;;1.73;;
60016;SDS011;45869;52.698;6.210;2023-05-19T12:06:48;4.28;;;1.10;;
60016;SDS011;45869;52.698;6.210;2023-05-19T12:09:14;4.93;;;1.40;;
60016;SDS011;45869;52.698;6.210;2023-05-19T12:11:40;7.00;;;1.50;;
60016;SDS011;45869;52.698;6.210;2023-05-19T12:14:06;7.13;;;1.75;;
60016;SDS011;45869;52.698;6.210;2023-05-19T12:16:34;5.75;;;1.60;;
60016;SDS011;45869;52.698;6.210;2023-05-19T12:19:00;3.95;;;1.42;;
60016;SDS011;45869;52.698;6.210;2023-05-19T12:21:26;4.68;;;1.27;;
60016;SDS011;45869;52.698;6.210;2023-05-19T12:23:52;4.68;;;1.20;;
60016;SDS011;45869;52.698;6.210;2023-05-19T12:26:18;5.57;;;1.50;;
60016;SDS011;45869;52.698;6.210;2023-05-19T12:28:46;7.10;;;1.50;;
60016;SDS011;45869;52.698;6.210;2023-05-19T12:31:13;4.00;;;1.30;;
60016;SDS011;45869;52.698;6.210;2023-05-19T12:33:39;5.03;;;1.48;;
60016;SDS011;45869;52.698;6.210;2023-05-19T12:36:05;4.63;;;1.23;;
60016;SDS011;45869;52.698;6.210;2023-05-19T12:38:32;4.10;;;1.30;;
60016;SDS011;45869;52.698;6.210;2023-05-19T12:41:01;4.15;;;1.35;;
60016;SDS011;45869;52.698;6.210;2023-05-19T12:43:27;7.72;;;1.67;;
60016;SDS011;45869;52.698;6.210;2023-05-19T12:45:53;4.07;;;1.25;;
60016;SDS011;45869;52.698;6.210;2023-05-19T12:48:22;4.28;;;1.15;;
60016;SDS011;45869;52.698;6.210;2023-05-19T12:50:50;3.92;;;1.48;;
60016;SDS011;45869;52.698;6.210;2023-05-19T12:53:18;6.20;;;1.13;;
60016;SDS011;45869;52.698;6.210;2023-05-19T12:55:44;6.57;;;1.63;;
60016;SDS011;45869;52.698;6.210;2023-05-19T12:58:10;4.90;;;1.02;;
60016;SDS011;45869;52.698;6.210;2023-05-19T13:00:42;5.20;;;1.50;;
60016;SDS011;45869;52.698;6.210;2023-05-19T13:03:15;4.35;;;0.95;;
60016;SDS011;45869;52.698;6.210;2023-05-19T13:05:43;5.32;;;1.40;;
60016;SDS011;45869;52.698;6.210;2023-05-19T13:08:11;3.65;;;1.42;;
60016;SDS011;45869;52.698;6.210;2023-05-19T13:10:38;3.95;;;1.40;;
60016;SDS011;45869;52.698;6.210;2023-05-19T13:13:05;5.15;;;1.20;;
60016;SDS011;45869;52.698;6.210;2023-05-19T13:15:32;5.50;;;1.42;;
60016;SDS011;45869;52.698;6.210;2023-05-19T13:18:00;5.22;;;1.17;;
60016;SDS011;45869;52.698;6.210;2023-05-19T13:20:27;3.30;;;1.20;;
60016;SDS011;45869;52.698;6.210;2023-05-19T13:22:53;5.38;;;1.60;;
60016;SDS011;45869;52.698;6.210;2023-05-19T13:25:19;4.68;;;1.10;;
60016;SDS011;45869;52.698;6.210;2023-05-19T13:27:46;4.97;;;1.25;;
60016;SDS011;45869;52.698;6.210;2023-05-19T13:30:12;3.95;;;1.13;;
60016;SDS011;45869;52.698;6.210;2023-05-19T13:32:40;4.28;;;1.10;;
60016;SDS011;45869;52.698;6.210;2023-05-19T13:35:06;6.53;;;1.50;;
60016;SDS011;45869;52.698;6.210;2023-05-19T13:37:32;4.25;;;1.00;;
60016;SDS011;45869;52.698;6.210;2023-05-19T13:39:58;5.53;;;1.55;;
60016;SDS011;45869;52.698;6.210;2023-05-19T13:42:25;7.05;;;1.40;;
60016;SDS011;45869;52.698;6.210;2023-05-19T13:44:55;4.63;;;0.82;;
60016;SDS011;45869;52.698;6.210;2023-05-19T13:47:21;4.88;;;1.50;;
60016;SDS011;45869;52.698;6.210;2023-05-19T13:49:47;8.15;;;1.58;;
60016;SDS011;45869;52.698;6.210;2023-05-19T13:52:13;4.72;;;1.30;;
60016;SDS011;45869;52.698;6.210;2023-05-19T13:54:39;7.18;;;1.30;;
60016;SDS011;45869;52.698;6.210;2023-05-19T13:57:05;5.22;;;1.30;;
60016;SDS011;45869;52.698;6.210;2023-05-19T13:59:31;6.57;;;1.60;;
60016;SDS011;45869;52.698;6.210;2023-05-19T14:01:58;5.57;;;1.00;;
60016;SDS011;45869;52.698;6.210;2023-05-19T14:04:26;5.20;;;1.17;;
60016;SDS011;45869;52.698;6.210;2023-05-19T14:06:53;10.00;;;1.30;;
60016;SDS011;45869;52.698;6.210;2023-05-19T14:09:19;7.35;;;1.40;;
60016;SDS011;45869;52.698;6.210;2023-05-19T14:11:46;5.03;;;1.63;;
60016;SDS011;45869;52.698;6.210;2023-05-19T14:14:12;6.55;;;1.58;;
60016;SDS011;45869;52.698;6.210;2023-05-19T14:16:41;4.55;;;1.27;;
60016;SDS011;45869;52.698;6.210;2023-05-19T14:19:07;6.85;;;1.70;;
60016;SDS011;45869;52.698;6.210;2023-05-19T14:21:33;4.05;;;1.10;;
60016;SDS011;45869;52.698;6.210;2023-05-19T14:24:00;5.75;;;1.38;;
60016;SDS011;45869;52.698;6.210;2023-05-19T14:26:26;4.63;;;1.25;;
60016;SDS011;45869;52.698;6.210;2023-05-19T14:28:52;6.00;;;1.27;;
60016;SDS011;45869;52.698;6.210;2023-05-19T14:31:18;5.72;;;1.50;;
60016;SDS011;45869;52.698;6.210;2023-05-19T14:33:44;3.83;;;1.10;;
60016;SDS011;45869;52.698;6.210;2023-05-19T14:36:10;5.40;;;1.38;;
60016;SDS011;45869;52.698;6.210;2023-05-19T14:38:36;5.05;;;1.30;;
60016;SDS011;45869;52.698;6.210;2023-05-19T14:41:02;4.68;;;1.52;;
60016;SDS011;45869;52.698;6.210;2023-05-19T14:43:28;6.55;;;1.50;;
60016;SDS011;45869;52.698;6.210;2023-05-19T14:45:55;4.85;;;1.65;;
60016;SDS011;45869;52.698;6.210;2023-05-19T14:48:21;7.10;;;1.60;;
60016;SDS011;45869;52.698;6.210;2023-05-19T14:50:47;6.68;;;1.80;;
60016;SDS011;45869;52.698;6.210;2023-05-19T14:53:13;5.78;;;1.23;;
60016;SDS011;45869;52.698;6.210;2023-05-19T14:55:40;5.22;;;1.73;;
60016;SDS011;45869;52.698;6.210;2023-05-19T14:58:06;3.78;;;1.23;;
60016;SDS011;45869;52.698;6.210;2023-05-19T15:00:32;7.10;;;2.25;;
60016;SDS011;45869;52.698;6.210;2023-05-19T15:02:58;6.47;;;1.70;;
60016;SDS011;45869;52.698;6.210;2023-05-19T15:05:24;4.35;;;1.48;;
60016;SDS011;45869;52.698;6.210;2023-05-19T15:07:50;11.05;;;1.70;;
60016;SDS011;45869;52.698;6.210;2023-05-19T15:10:16;4.28;;;1.30;;
60016;SDS011;45869;52.698;6.210;2023-05-19T15:12:44;4.72;;;1.55;;
60016;SDS011;45869;52.698;6.210;2023-05-19T15:15:10;6.30;;;1.85;;